createdAt,value
2023-03-11T00:00:46.303Z,6.85
2023-03-11T00:03:16.327Z,6.25
2023-03-11T00:05:46.419Z,5.85
2023-03-11T00:08:18.986Z,5.78
2023-03-11T00:10:48.398Z,6.32
2023-03-11T00:13:17.018Z,5.25
2023-03-11T00:15:48.841Z,6.55
2023-03-11T00:18:17.543Z,5.60
2023-03-11T00:20:47.211Z,5.63
2023-03-11T00:23:16.159Z,6.93
2023-03-11T00:25:45.997Z,6.75
2023-03-11T00:28:15.335Z,7.75
2023-03-11T00:30:45.136Z,5.90
2023-03-11T00:33:16.229Z,6.45
2023-03-11T00:35:44.502Z,8.98
2023-03-11T00:38:15.549Z,6.25
2023-03-11T00:40:44.816Z,6.97
2023-03-11T00:43:12.899Z,15.57
2023-03-11T00:45:40.742Z,10.00
2023-03-11T00:48:15.022Z,9.68
2023-03-11T00:50:43.012Z,10.90
2023-03-11T00:53:11.868Z,7.20
2023-03-11T00:55:41.172Z,10.20
2023-03-11T00:58:13.243Z,9.25
2023-03-11T01:00:54.448Z,9.82
2023-03-11T01:03:22.639Z,8.75
2023-03-11T01:05:50.694Z,13.63
2023-03-11T01:08:18.569Z,6.05
2023-03-11T01:10:46.470Z,11.70
2023-03-11T01:13:14.364Z,8.68
2023-03-11T01:15:42.126Z,7.10
2023-03-11T01:18:10.007Z,7.35
2023-03-11T01:20:38.826Z,4.63
2023-03-11T01:23:08.089Z,8.10
2023-03-11T01:25:36.713Z,6.97
2023-03-11T01:28:06.774Z,7.78
2023-03-11T01:30:37.678Z,6.65
2023-03-11T01:33:08.195Z,6.55
2023-03-11T01:35:36.032Z,7.57
2023-03-11T01:38:03.923Z,6.82
2023-03-11T01:40:36.875Z,6.38
2023-03-11T01:43:44.030Z,7.00
2023-03-11T01:47:00.163Z,7.65
2023-03-11T01:49:32.069Z,8.73
2023-03-11T01:52:10.671Z,7.47
2023-03-11T01:54:46.291Z,6.47
2023-03-11T01:57:15.880Z,6.90
2023-03-11T01:59:49.729Z,5.90
2023-03-11T02:02:36.102Z,7.32
2023-03-11T02:05:04.879Z,8.30
2023-03-11T02:07:33.201Z,6.03
2023-03-11T02:10:02.301Z,8.32
2023-03-11T02:12:35.543Z,4.68
2023-03-11T02:15:05.332Z,5.60
2023-03-11T02:17:37.141Z,7.22
2023-03-11T02:20:07.950Z,7.32
2023-03-11T02:22:36.456Z,11.23
2023-03-11T02:25:10.456Z,5.15
2023-03-11T02:27:45.438Z,5.82
2023-03-11T02:30:15.737Z,4.28
2023-03-11T02:32:48.695Z,6.18
2023-03-11T02:35:18.607Z,5.50
2023-03-11T02:37:52.735Z,4.13
2023-03-11T02:40:24.439Z,7.20
2023-03-11T02:43:00.070Z,6.15
2023-03-11T02:45:30.241Z,5.70
2023-03-11T02:47:59.974Z,7.82
2023-03-11T02:50:29.420Z,6.00
2023-03-11T02:52:57.340Z,5.43
2023-03-11T02:55:25.218Z,6.20
2023-03-11T02:57:52.999Z,5.13
2023-03-11T03:00:21.340Z,5.28
2023-03-11T03:02:58.134Z,6.07
2023-03-11T03:05:26.963Z,5.20
2023-03-11T03:07:54.887Z,5.15
2023-03-11T03:10:23.072Z,5.82
2023-03-11T03:12:51.369Z,5.85
2023-03-11T03:15:19.145Z,5.10
2023-03-11T03:17:47.815Z,7.00
2023-03-11T03:20:15.914Z,5.45
2023-03-11T03:22:50.473Z,5.78
2023-03-11T03:25:20.766Z,5.53
2023-03-11T03:27:49.747Z,4.18
2023-03-11T03:30:18.257Z,5.03
2023-03-11T03:32:46.277Z,4.95
2023-03-11T03:35:17.202Z,4.50
2023-03-11T03:38:11.279Z,4.50
2023-03-11T03:40:40.325Z,4.03
2023-03-11T03:43:09.030Z,5.82
2023-03-11T03:45:38.200Z,4.93
2023-03-11T03:48:07.264Z,8.05
2023-03-11T03:50:40.483Z,6.72
2023-03-11T03:53:09.903Z,5.10
2023-03-11T03:55:37.785Z,3.55
2023-03-11T03:58:07.258Z,4.95
2023-03-11T04:00:37.063Z,8.05
2023-03-11T04:03:05.322Z,4.60
2023-03-11T04:05:44.712Z,5.03
2023-03-11T04:08:14.780Z,6.03
2023-03-11T04:10:42.925Z,5.85
2023-03-11T04:13:10.849Z,5.13
2023-03-11T04:15:39.964Z,5.38
2023-03-11T04:18:08.164Z,4.30
2023-03-11T04:20:39.314Z,4.45
2023-03-11T04:23:07.356Z,5.15
2023-03-11T04:25:35.126Z,4.43
2023-03-11T04:28:03.798Z,4.25
2023-03-11T04:30:33.347Z,4.95
2023-03-11T04:33:02.110Z,5.93
2023-03-11T04:35:30.785Z,6.57
2023-03-11T04:37:58.758Z,4.97
2023-03-11T04:40:28.690Z,8.30
2023-03-11T04:42:56.516Z,5.38
2023-03-11T04:45:25.374Z,4.47
2023-03-11T04:47:56.744Z,4.80
2023-03-11T04:50:24.972Z,5.43
2023-03-11T04:52:53.221Z,3.92
2023-03-11T04:55:21.262Z,4.85
2023-03-11T04:57:49.284Z,4.15
2023-03-11T05:00:20.306Z,3.13
2023-03-11T05:02:52.385Z,3.92
2023-03-11T05:05:20.880Z,5.50
2023-03-11T05:07:50.700Z,3.58
2023-03-11T05:10:22.591Z,6.22
2023-03-11T05:12:53.873Z,4.13
2023-03-11T05:15:24.104Z,5.85
2023-03-11T05:17:51.934Z,4.25
2023-03-11T05:20:20.024Z,5.45
2023-03-11T05:22:47.731Z,5.32
2023-03-11T05:25:15.503Z,8.35
2023-03-11T05:27:45.320Z,4.68
2023-03-11T05:30:15.509Z,3.45
2023-03-11T05:32:44.951Z,3.38
2023-03-11T05:35:13.416Z,5.00
2023-03-11T05:37:41.967Z,5.93
2023-03-11T05:40:11.539Z,5.10
2023-03-11T05:42:41.437Z,5.13
2023-03-11T05:45:11.231Z,3.42
2023-03-11T05:47:42.518Z,5.57
2023-03-11T05:50:13.783Z,5.57
2023-03-11T05:52:42.980Z,4.18
2023-03-11T05:55:12.537Z,6.43
2023-03-11T05:57:42.558Z,5.47
2023-03-11T06:00:14.072Z,4.50
2023-03-11T06:02:43.964Z,5.43
2023-03-11T06:05:15.718Z,3.65
2023-03-11T06:07:45.824Z,4.50
2023-03-11T06:10:13.934Z,4.88
2023-03-11T06:12:42.082Z,3.97
2023-03-11T06:15:21.800Z,4.97
2023-03-11T06:17:49.899Z,5.93
2023-03-11T06:20:20.283Z,5.97
2023-03-11T06:22:54.416Z,4.32
2023-03-11T06:25:24.231Z,4.55
2023-03-11T06:27:53.705Z,4.25
2023-03-11T06:30:24.874Z,6.68
2023-03-11T06:33:02.449Z,5.75
2023-03-11T06:35:30.160Z,6.93
2023-03-11T06:37:57.874Z,5.97
2023-03-11T06:40:25.698Z,4.80
2023-03-11T06:42:57.098Z,5.03
2023-03-11T06:45:27.096Z,7.60
2023-03-11T06:47:54.948Z,6.32
2023-03-11T06:50:24.149Z,7.40
2023-03-11T06:52:53.884Z,9.25
2023-03-11T06:55:21.658Z,4.85
2023-03-11T06:57:49.740Z,4.72
2023-03-11T07:00:19.202Z,4.90
2023-03-11T07:02:53.063Z,5.78
2023-03-11T07:05:21.582Z,6.20
2023-03-11T07:07:56.542Z,8.35
2023-03-11T07:10:26.202Z,7.43
2023-03-11T07:12:54.046Z,3.60
2023-03-11T07:15:22.506Z,3.92
2023-03-11T07:17:50.325Z,5.95
2023-03-11T07:20:19.038Z,4.43
2023-03-11T07:22:46.781Z,5.22
2023-03-11T07:25:16.751Z,6.18
2023-03-11T07:27:44.456Z,6.88
2023-03-11T07:30:12.378Z,5.30
2023-03-11T07:32:40.444Z,7.85
2023-03-11T07:35:08.896Z,4.55
2023-03-11T07:37:36.561Z,3.70
2023-03-11T07:40:04.876Z,6.55
2023-03-11T07:42:34.048Z,6.43
2023-03-11T07:45:02.955Z,7.78
2023-03-11T07:47:30.646Z,4.80
2023-03-11T07:49:58.481Z,6.93
2023-03-11T07:52:26.260Z,7.30
2023-03-11T07:54:54.684Z,9.50
2023-03-11T07:57:22.641Z,5.80
2023-03-11T07:59:50.584Z,5.30
2023-03-11T08:02:19.278Z,5.88
2023-03-11T08:04:47.278Z,5.85
2023-03-11T08:07:15.117Z,6.43
2023-03-11T08:09:43.037Z,7.75
2023-03-11T08:12:10.819Z,7.05
2023-03-11T08:14:39.822Z,6.30
2023-03-11T08:17:07.729Z,6.60
2023-03-11T08:19:36.040Z,9.05
2023-03-11T08:22:04.461Z,6.45
2023-03-11T08:24:32.295Z,8.70
2023-03-11T08:27:00.373Z,7.28
2023-03-11T08:29:28.120Z,8.27
2023-03-11T08:31:55.843Z,10.07
2023-03-11T08:34:23.527Z,7.40
2023-03-11T08:36:51.626Z,9.18
2023-03-11T08:39:20.534Z,6.95
2023-03-11T08:41:48.338Z,6.00
2023-03-11T08:44:16.108Z,19.13
2023-03-11T08:46:44.151Z,20.90
2023-03-11T08:49:11.915Z,25.20
2023-03-11T08:51:39.865Z,9.65
2023-03-11T08:54:07.790Z,8.23
2023-03-11T08:56:35.580Z,10.10
2023-03-11T08:59:03.497Z,8.23
2023-03-11T09:01:31.262Z,14.93
2023-03-11T09:03:58.950Z,8.57
2023-03-11T09:06:26.888Z,8.98
2023-03-11T09:08:54.841Z,10.93
2023-03-11T09:11:23.010Z,9.80
2023-03-11T09:13:51.581Z,10.15
2023-03-11T09:16:22.159Z,10.10
2023-03-11T09:18:50.057Z,8.52
2023-03-11T09:21:18.031Z,9.02
2023-03-11T09:23:46.234Z,4.97
2023-03-11T09:26:15.163Z,7.38
2023-03-11T09:28:46.394Z,6.13
2023-03-11T09:31:14.813Z,5.90
2023-03-11T09:33:43.429Z,7.40
2023-03-11T09:36:14.971Z,9.18
2023-03-11T09:38:43.264Z,6.88
2023-03-11T09:41:17.623Z,9.48
2023-03-11T09:44:05.700Z,9.68
2023-03-11T09:47:01.914Z,6.57
2023-03-11T09:50:00.176Z,7.47
2023-03-11T09:52:53.554Z,7.88
2023-03-11T09:55:31.769Z,7.75
2023-03-11T09:58:04.496Z,12.80
2023-03-11T10:00:32.758Z,6.50
2023-03-11T10:03:02.990Z,5.85
2023-03-11T10:05:31.001Z,9.07
2023-03-11T10:08:05.281Z,9.77
2023-03-11T10:10:41.683Z,5.05
2023-03-11T10:13:28.375Z,6.05
2023-03-11T10:16:00.948Z,6.88
2023-03-11T10:19:09.562Z,7.68
2023-03-11T10:21:43.237Z,7.80
2023-03-11T10:24:19.246Z,7.90
2023-03-11T10:27:01.759Z,6.07
2023-03-11T10:29:32.997Z,8.43
2023-03-11T10:32:12.258Z,7.43
2023-03-11T10:34:55.087Z,6.45
2023-03-11T10:37:49.431Z,6.45
2023-03-11T10:40:26.906Z,6.45
2023-03-11T10:45:23.856Z,5.68
2023-03-11T10:47:51.684Z,5.07
2023-03-11T10:50:20.545Z,7.30
2023-03-11T10:53:10.910Z,7.13
2023-03-11T10:55:49.934Z,4.93
2023-03-11T10:58:24.556Z,5.60
2023-03-11T11:01:17.762Z,7.97
2023-03-11T11:03:50.382Z,7.72
2023-03-11T11:06:22.712Z,5.70
2023-03-11T11:09:06.855Z,7.50
2023-03-11T11:11:37.564Z,6.80
2023-03-11T11:14:06.447Z,6.53
2023-03-11T11:16:36.090Z,8.25
2023-03-11T11:19:05.495Z,11.30
2023-03-11T11:21:40.110Z,11.32
2023-03-11T11:24:29.568Z,15.98
2023-03-11T11:27:05.948Z,12.55
2023-03-11T11:29:34.880Z,10.43
2023-03-11T11:32:26.738Z,10.05
2023-03-11T11:35:03.123Z,11.10
2023-03-11T11:37:34.850Z,8.02
2023-03-11T11:40:27.662Z,12.80
2023-03-11T11:43:12.255Z,7.97
2023-03-11T11:45:47.538Z,15.38
2023-03-11T11:48:25.576Z,13.98
2023-03-11T11:50:59.100Z,14.77
2023-03-11T11:53:41.243Z,15.40
2023-03-11T11:56:10.609Z,14.02
2023-03-11T11:58:41.285Z,10.90
2023-03-11T12:01:49.351Z,5.97
2023-03-11T12:04:26.870Z,6.65
2023-03-11T12:07:25.288Z,7.80
2023-03-11T12:10:22.998Z,6.35
2023-03-11T12:13:13.342Z,10.73
2023-03-11T12:15:54.036Z,8.98
2023-03-11T12:18:29.526Z,7.93
2023-03-11T12:20:58.144Z,8.20
2023-03-11T12:23:46.388Z,6.47
2023-03-11T12:26:25.262Z,13.60
2023-03-11T12:29:05.000Z,16.23
2023-03-11T12:31:40.490Z,13.27
2023-03-11T12:34:12.520Z,21.58
2023-03-11T12:36:44.109Z,18.92
2023-03-11T12:39:29.014Z,23.65
2023-03-11T12:42:11.948Z,26.33
2023-03-11T12:44:41.010Z,20.92
2023-03-11T12:47:10.413Z,13.38
2023-03-11T12:50:14.442Z,17.65
2023-03-11T12:52:53.895Z,13.05
2023-03-11T12:55:30.882Z,14.05
2023-03-11T12:58:22.753Z,13.43
2023-03-11T13:01:16.875Z,14.48
2023-03-11T13:04:01.271Z,26.20
2023-03-11T13:06:53.728Z,22.83
2023-03-11T13:09:21.654Z,23.25
2023-03-11T13:11:49.846Z,21.52
2023-03-11T13:14:34.221Z,17.55
2023-03-11T13:17:25.933Z,43.05
2023-03-11T13:19:58.599Z,63.33
2023-03-11T13:22:47.617Z,41.63
2023-03-11T13:25:43.056Z,37.42
2023-03-11T13:28:20.668Z,26.05
2023-03-11T13:31:20.084Z,41.65
2023-03-11T13:34:03.191Z,27.17
2023-03-11T13:36:56.021Z,22.60
2023-03-11T13:39:46.639Z,26.05
2023-03-11T13:42:37.219Z,23.20
2023-03-11T13:45:08.063Z,22.13
2023-03-11T13:47:38.904Z,27.08
2023-03-11T13:50:10.640Z,21.13
2023-03-11T13:52:48.412Z,13.25
2023-03-11T13:55:45.409Z,13.18
2023-03-11T13:58:31.531Z,14.35
2023-03-11T14:01:02.130Z,19.50
2023-03-11T14:03:41.304Z,14.85
2023-03-11T14:06:19.333Z,14.90
2023-03-11T14:08:55.219Z,13.23
2023-03-11T14:11:29.919Z,12.13
2023-03-11T14:13:57.828Z,17.55
2023-03-11T14:16:36.374Z,13.85
2023-03-11T14:19:15.609Z,17.08
2023-03-11T14:21:45.023Z,18.92
2023-03-11T14:24:25.339Z,19.77
2023-03-11T14:26:56.256Z,14.15
2023-03-11T14:29:35.329Z,13.52
2023-03-11T14:32:24.201Z,11.85
2023-03-11T14:34:52.176Z,8.80
2023-03-11T14:37:32.145Z,7.93
2023-03-11T14:40:00.207Z,6.97
2023-03-11T14:42:40.162Z,8.40
2023-03-11T14:45:14.438Z,4.90
2023-03-11T14:47:48.487Z,6.32
2023-03-11T14:50:22.129Z,4.90
2023-03-11T14:53:18.047Z,7.20
2023-03-11T14:55:51.929Z,5.32
2023-03-11T14:58:40.437Z,5.40
2023-03-11T15:01:14.303Z,6.78
2023-03-11T15:03:50.498Z,8.00
2023-03-11T15:06:22.897Z,6.10
2023-03-11T15:08:57.224Z,5.70
2023-03-11T15:11:28.784Z,4.55
2023-03-11T15:14:33.440Z,5.88
2023-03-11T15:17:39.487Z,6.05
2023-03-11T15:20:29.706Z,6.85
2023-03-11T15:23:03.177Z,10.30
2023-03-11T15:25:37.549Z,16.00
2023-03-11T15:28:43.194Z,13.98
2023-03-11T15:31:33.479Z,11.80
2023-03-11T15:34:17.927Z,8.52
2023-03-11T15:36:48.805Z,14.55
2023-03-11T15:39:20.754Z,15.52
2023-03-11T15:42:02.184Z,27.98
2023-03-11T15:44:33.528Z,37.17
2023-03-11T15:47:01.569Z,67.30
2023-03-11T15:49:30.101Z,82.88
2023-03-11T15:52:01.683Z,112.20
2023-03-11T15:54:29.718Z,114.80
2023-03-11T15:57:00.904Z,144.88
2023-03-11T15:59:30.174Z,165.27
2023-03-11T16:01:59.629Z,222.13
2023-03-11T16:04:27.747Z,178.13
2023-03-11T16:07:07.063Z,152.75
2023-03-11T16:09:35.501Z,146.32
2023-03-11T16:12:13.624Z,104.97
2023-03-11T16:14:41.772Z,93.45
2023-03-11T16:17:10.482Z,80.75
2023-03-11T16:19:41.901Z,37.15
2023-03-11T16:22:18.937Z,24.90
2023-03-11T16:27:18.271Z,10.18
2023-03-11T16:29:46.837Z,13.20
2023-03-11T16:32:15.046Z,10.52
2023-03-11T16:34:43.039Z,11.60
2023-03-11T16:37:15.591Z,13.18
2023-03-11T16:39:43.338Z,56.60
2023-03-11T16:42:10.998Z,121.75
2023-03-11T16:44:38.701Z,533.38
2023-03-11T16:47:06.651Z,539.72
2023-03-11T16:49:34.344Z,520.38
2023-03-11T16:52:02.110Z,490.73
2023-03-11T16:54:29.862Z,517.90
2023-03-11T16:56:57.732Z,497.55
2023-03-11T16:59:25.418Z,449.48
2023-03-11T17:01:53.308Z,422.90
2023-03-11T17:04:21.141Z,416.25
2023-03-11T17:06:48.853Z,305.85
2023-03-11T17:09:16.638Z,294.70
2023-03-11T17:11:44.432Z,216.55
2023-03-11T17:14:16.652Z,248.15
2023-03-11T17:16:45.480Z,297.38
2023-03-11T17:19:13.579Z,277.52
2023-03-11T17:21:41.582Z,324.40
2023-03-11T17:24:10.817Z,218.93
2023-03-11T17:26:39.338Z,291.52
2023-03-11T17:29:07.773Z,269.75
2023-03-11T17:31:36.308Z,294.80
2023-03-11T17:34:05.588Z,346.67
2023-03-11T17:36:33.703Z,318.42
2023-03-11T17:39:01.821Z,302.85
2023-03-11T17:41:29.755Z,318.17
2023-03-11T17:43:59.308Z,250.98
2023-03-11T17:46:27.169Z,234.45
2023-03-11T17:48:55.132Z,175.35
2023-03-11T17:51:29.570Z,171.65
2023-03-11T17:53:57.666Z,146.23
2023-03-11T17:56:25.526Z,205.95
2023-03-11T17:58:53.894Z,192.32
2023-03-11T18:01:27.657Z,241.80
2023-03-11T18:03:56.514Z,319.75
2023-03-11T18:06:24.639Z,217.60
2023-03-11T18:08:53.154Z,218.20
2023-03-11T18:11:24.365Z,231.70
2023-03-11T18:13:52.618Z,178.68
2023-03-11T18:16:23.370Z,209.32
2023-03-11T18:18:51.552Z,196.52
2023-03-11T18:21:24.366Z,201.80
2023-03-11T18:23:55.408Z,140.50
2023-03-11T18:26:24.992Z,86.47
2023-03-11T18:28:54.030Z,66.90
2023-03-11T18:31:23.853Z,91.28
2023-03-11T18:34:01.576Z,61.58
2023-03-11T18:38:59.585Z,49.70
2023-03-11T18:41:31.212Z,35.05
2023-03-11T18:43:58.979Z,46.35
2023-03-11T18:46:29.147Z,36.95
2023-03-11T18:48:58.193Z,28.70
2023-03-11T18:51:27.822Z,19.92
2023-03-11T18:53:55.926Z,24.85
2023-03-11T18:56:23.532Z,19.98
2023-03-11T18:58:51.463Z,17.38
2023-03-11T19:01:21.310Z,14.82
2023-03-11T19:03:54.206Z,15.77
2023-03-11T19:06:23.556Z,13.73
2023-03-11T19:08:52.323Z,15.90
2023-03-11T19:11:22.974Z,12.43
2023-03-11T19:13:51.318Z,15.07
2023-03-11T19:16:22.138Z,15.57
2023-03-11T19:18:51.552Z,14.43
2023-03-11T19:21:19.493Z,9.68
2023-03-11T19:23:47.599Z,18.95
2023-03-11T19:26:16.342Z,11.27
2023-03-11T19:28:44.338Z,15.13
2023-03-11T19:31:12.571Z,14.25
2023-03-11T19:33:40.468Z,12.45
2023-03-11T19:36:08.956Z,15.07
2023-03-11T19:38:37.009Z,11.25
2023-03-11T19:41:11.329Z,8.57
2023-03-11T19:43:39.209Z,11.82
2023-03-11T19:46:10.408Z,10.90
2023-03-11T19:48:38.275Z,11.50
2023-03-11T19:51:06.457Z,12.32
2023-03-11T19:53:36.186Z,12.02
2023-03-11T19:56:05.253Z,10.93
2023-03-11T19:58:34.019Z,13.68
2023-03-11T20:01:02.469Z,9.57
2023-03-11T20:03:30.908Z,11.45
2023-03-11T20:06:05.802Z,9.02
2023-03-11T20:08:38.043Z,11.07
2023-03-11T20:11:06.701Z,12.98
2023-03-11T20:13:36.653Z,14.32
2023-03-11T20:16:15.088Z,15.65
2023-03-11T20:18:44.389Z,12.02
2023-03-11T20:21:13.435Z,13.02
2023-03-11T20:23:41.313Z,13.70
2023-03-11T20:26:12.833Z,18.63
2023-03-11T20:28:41.349Z,13.45
2023-03-11T20:31:22.225Z,9.73
2023-03-11T20:33:52.174Z,12.95
2023-03-11T20:36:23.105Z,11.32
2023-03-11T20:38:52.793Z,12.45
2023-03-11T20:41:23.488Z,13.32
2023-03-11T20:43:56.470Z,10.35
2023-03-11T20:46:24.714Z,13.00
2023-03-11T20:48:52.700Z,10.00
2023-03-11T20:51:21.678Z,12.82
2023-03-11T20:53:52.199Z,13.50
2023-03-11T20:56:23.701Z,15.35
2023-03-11T20:58:52.450Z,13.73
2023-03-11T21:01:28.967Z,12.55
2023-03-11T21:04:00.172Z,13.05
2023-03-11T21:06:39.282Z,12.75
2023-03-11T21:09:12.978Z,12.30
2023-03-11T21:11:41.726Z,10.50
2023-03-11T21:14:11.227Z,10.52
2023-03-11T21:16:39.327Z,9.95
2023-03-11T21:19:09.006Z,13.95
2023-03-11T21:21:38.030Z,10.07
2023-03-11T21:24:07.220Z,12.77
2023-03-11T21:26:35.514Z,11.90
2023-03-11T21:29:04.377Z,12.43
2023-03-11T21:31:32.542Z,14.07
2023-03-11T21:34:02.524Z,13.07
2023-03-11T21:36:30.752Z,15.13
2023-03-11T21:38:59.020Z,13.48
2023-03-11T21:41:28.716Z,12.15
2023-03-11T21:43:57.729Z,11.90
2023-03-11T21:46:32.023Z,13.00
2023-03-11T21:49:01.918Z,9.45
2023-03-11T21:51:30.558Z,12.32
2023-03-11T21:54:00.260Z,11.27
2023-03-11T21:56:33.164Z,12.48
2023-03-11T21:59:01.221Z,12.95
2023-03-11T22:01:29.450Z,11.00
2023-03-11T22:03:57.594Z,10.10
2023-03-11T22:06:25.779Z,14.32
2023-03-11T22:08:54.073Z,11.45
2023-03-11T22:11:22.117Z,10.80
2023-03-11T22:13:54.475Z,10.95
2023-03-11T22:16:24.086Z,9.70
2023-03-11T22:18:52.863Z,11.38
2023-03-11T22:21:21.178Z,9.35
2023-03-11T22:23:49.026Z,11.52
2023-03-11T22:26:16.999Z,10.88
2023-03-11T22:28:44.992Z,13.07
2023-03-11T22:31:15.118Z,9.45
2023-03-11T22:33:43.159Z,11.75
2023-03-11T22:36:11.273Z,10.27
2023-03-11T22:38:41.956Z,9.50
2023-03-11T22:41:10.615Z,9.50
2023-03-11T22:43:40.611Z,8.80
2023-03-11T22:46:09.805Z,9.73
2023-03-11T22:48:37.723Z,11.70
2023-03-11T22:51:06.249Z,10.82
2023-03-11T22:53:34.263Z,11.15
2023-03-11T22:56:10.933Z,11.40
2023-03-11T22:58:38.876Z,9.40
2023-03-11T23:01:07.132Z,14.30
2023-03-11T23:03:36.608Z,9.98
2023-03-11T23:06:07.973Z,8.57
2023-03-11T23:08:36.125Z,10.57
2023-03-11T23:11:10.723Z,10.38
2023-03-11T23:13:40.311Z,10.70
2023-03-11T23:16:17.411Z,10.50
2023-03-11T23:21:23.936Z,8.13
2023-03-11T23:23:53.903Z,9.50
2023-03-11T23:26:22.390Z,8.75
2023-03-11T23:28:51.883Z,8.00
2023-03-11T23:31:22.497Z,6.10
2023-03-11T23:33:51.114Z,6.68
2023-03-11T23:36:21.482Z,8.25
2023-03-11T23:38:52.402Z,8.52
2023-03-11T23:41:22.019Z,8.27
2023-03-11T23:43:50.366Z,7.05
2023-03-11T23:46:18.142Z,7.95
2023-03-11T23:48:46.177Z,6.47
2023-03-11T23:51:14.087Z,9.90
2023-03-11T23:53:41.963Z,7.80
2023-03-11T23:56:17.121Z,6.20
2023-03-11T23:58:45.637Z,6.22
